createdAt,value
2023-01-28T00:01:40.182Z,97524.19
2023-01-28T00:04:07.855Z,97541.94
2023-01-28T00:06:36.255Z,97530.31
2023-01-28T00:09:03.989Z,97534.34
2023-01-28T00:11:31.528Z,97527.09
2023-01-28T00:13:59.085Z,97523.97
2023-01-28T00:16:30.633Z,97525.56
2023-01-28T00:18:58.326Z,97523.22
2023-01-28T00:21:26.847Z,97513.13
2023-01-28T00:23:56.419Z,97533.75
2023-01-28T00:26:25.568Z,97523.38
2023-01-28T00:28:53.376Z,97512.66
2023-01-28T00:31:27.747Z,97517.81
2023-01-28T00:33:57.093Z,97511.31
2023-01-28T00:36:26.467Z,97499.78
2023-01-28T00:38:59.225Z,97501.94
2023-01-28T00:41:29.143Z,97508.13
2023-01-28T00:43:59.956Z,97496.53
2023-01-28T00:46:28.281Z,97502.03
2023-01-28T00:48:56.791Z,97496.28
2023-01-28T00:51:24.259Z,97501.00
2023-01-28T00:53:51.750Z,97499.88
2023-01-28T00:56:19.880Z,97486.44
2023-01-28T00:58:48.279Z,97501.78
2023-01-28T01:01:18.891Z,97499.44
2023-01-28T01:03:47.193Z,97508.16
2023-01-28T01:06:16.419Z,97497.44
2023-01-28T01:08:50.343Z,97493.19
2023-01-28T01:11:19.281Z,97497.84
2023-01-28T01:13:52.002Z,97478.66
2023-01-28T01:16:19.553Z,97486.88
2023-01-28T01:18:50.859Z,97480.09
2023-01-28T01:21:21.486Z,97481.75
2023-01-28T01:23:49.904Z,97478.25
2023-01-28T01:26:17.845Z,97487.72
2023-01-28T01:28:45.681Z,97482.41
2023-01-28T01:31:19.389Z,97479.44
2023-01-28T01:33:48.596Z,97480.09
2023-01-28T01:36:18.793Z,97495.75
2023-01-28T01:38:46.749Z,97482.47
2023-01-28T01:41:32.411Z,97486.44
2023-01-28T01:44:04.582Z,97482.84
2023-01-28T01:46:44.204Z,97483.06
2023-01-28T01:49:24.414Z,97478.69
2023-01-28T01:52:02.844Z,97483.84
2023-01-28T01:54:32.750Z,97497.97
2023-01-28T01:57:03.468Z,97502.97
2023-01-28T01:59:33.688Z,97490.00
2023-01-28T02:02:05.577Z,97504.53
2023-01-28T02:04:39.344Z,97510.03
2023-01-28T02:07:10.050Z,97502.53
2023-01-28T02:09:41.900Z,97496.41
2023-01-28T02:12:16.455Z,97496.28
2023-01-28T02:14:55.283Z,97499.94
2023-01-28T02:17:23.013Z,97496.81
2023-01-28T02:20:03.079Z,97497.16
2023-01-28T02:22:32.610Z,97508.34
2023-01-28T02:25:27.926Z,97515.41
2023-01-28T02:28:22.174Z,97516.44
2023-01-28T02:31:02.262Z,97520.97
2023-01-28T02:33:32.691Z,97508.47
2023-01-28T02:36:11.976Z,97509.69
2023-01-28T02:38:46.166Z,97513.31
2023-01-28T02:41:25.679Z,97513.34
2023-01-28T02:43:53.325Z,97507.25
2023-01-28T02:46:41.183Z,97511.66
2023-01-28T02:49:13.505Z,97520.41
2023-01-28T02:51:59.460Z,97523.84
2023-01-28T02:54:42.438Z,97521.78
2023-01-28T02:57:23.283Z,97526.31
2023-01-28T03:00:15.845Z,97516.38
2023-01-28T03:03:14.343Z,97527.34
2023-01-28T03:06:07.247Z,97522.03
2023-01-28T03:09:09.704Z,97529.03
2023-01-28T03:12:01.079Z,97509.66
2023-01-28T03:14:48.901Z,97508.69
2023-01-28T03:17:49.162Z,97500.56
2023-01-28T03:20:35.732Z,97502.13
2023-01-28T03:23:31.677Z,97504.19
2023-01-28T03:26:20.568Z,97519.81
2023-01-28T03:29:09.392Z,97514.59
2023-01-28T03:31:57.144Z,97510.28
2023-01-28T03:34:44.052Z,97510.56
2023-01-28T03:37:15.032Z,97512.16
2023-01-28T03:39:52.618Z,97510.72
2023-01-28T03:42:21.522Z,97507.34
2023-01-28T03:45:04.370Z,97519.59
2023-01-28T03:47:34.464Z,97520.25
2023-01-28T03:50:06.984Z,97523.38
2023-01-28T03:52:42.324Z,97527.59
2023-01-28T03:55:45.573Z,97526.19
2023-01-28T03:58:14.095Z,97530.59
2023-01-28T04:00:42.587Z,97536.22
2023-01-28T04:03:18.247Z,97540.91
2023-01-28T04:06:11.581Z,97536.69
2023-01-28T04:08:59.705Z,97533.06
2023-01-28T04:11:40.676Z,97532.28
2023-01-28T04:14:09.884Z,97531.06
2023-01-28T04:16:57.861Z,97529.84
2023-01-28T04:19:27.188Z,97518.28
2023-01-28T04:21:56.964Z,97527.66
2023-01-28T04:24:26.063Z,97528.13
2023-01-28T04:26:56.414Z,97533.72
2023-01-28T04:29:26.018Z,97532.66
2023-01-28T04:31:56.789Z,97536.22
2023-01-28T04:34:36.452Z,97532.84
2023-01-28T04:37:13.898Z,97540.19
2023-01-28T04:40:12.527Z,97542.66
2023-01-28T04:42:55.928Z,97556.78
2023-01-28T04:45:50.033Z,97558.84
2023-01-28T04:48:36.902Z,97561.19
2023-01-28T04:51:28.297Z,97559.91
2023-01-28T04:54:14.853Z,97563.69
2023-01-28T04:56:50.686Z,97565.88
2023-01-28T04:59:20.392Z,97559.50
2023-01-28T05:01:48.974Z,97576.69
2023-01-28T05:04:17.822Z,97572.16
2023-01-28T05:06:45.884Z,97571.69
2023-01-28T05:09:20.037Z,97561.97
2023-01-28T05:11:49.256Z,97557.91
2023-01-28T05:14:17.121Z,97574.78
2023-01-28T05:16:55.026Z,97569.50
2023-01-28T05:19:27.618Z,97567.53
2023-01-28T05:21:57.094Z,97551.97
2023-01-28T05:24:33.869Z,97563.75
2023-01-28T05:27:01.628Z,97558.75
2023-01-28T05:29:30.204Z,97553.28
2023-01-28T05:31:58.014Z,97570.31
2023-01-28T05:34:26.063Z,97574.59
2023-01-28T05:36:55.123Z,97574.88
2023-01-28T05:39:32.196Z,97581.16
2023-01-28T05:42:00.139Z,97579.00
2023-01-28T05:44:28.274Z,97576.97
2023-01-28T05:47:07.177Z,97590.72
2023-01-28T05:49:54.869Z,97596.63
2023-01-28T05:52:34.880Z,97605.44
2023-01-28T05:55:03.393Z,97602.34
2023-01-28T05:57:31.086Z,97611.47
2023-01-28T05:59:58.615Z,97601.94
2023-01-28T06:02:26.278Z,97589.72
2023-01-28T06:04:57.461Z,97593.53
2023-01-28T06:07:25.346Z,97616.47
2023-01-28T06:09:52.875Z,97602.88
2023-01-28T06:12:22.162Z,97614.16
2023-01-28T06:15:08.911Z,97613.75
2023-01-28T06:17:54.613Z,97609.94
2023-01-28T06:20:30.996Z,97615.88
2023-01-28T06:22:59.923Z,97625.72
2023-01-28T06:25:27.720Z,97632.13
2023-01-28T06:27:57.258Z,97629.00
2023-01-28T06:30:24.745Z,97623.44
2023-01-28T06:32:56.318Z,97635.34
2023-01-28T06:35:24.388Z,97630.38
2023-01-28T06:37:52.802Z,97641.06
2023-01-28T06:40:20.775Z,97635.16
2023-01-28T06:42:48.257Z,97641.94
2023-01-28T06:45:15.809Z,97652.75
2023-01-28T06:47:43.406Z,97654.66
2023-01-28T06:50:11.440Z,97655.09
2023-01-28T06:52:38.968Z,97658.72
2023-01-28T06:55:06.793Z,97651.69
2023-01-28T06:57:34.265Z,97655.63
2023-01-28T07:00:01.863Z,97657.19
2023-01-28T07:02:31.638Z,97650.81
2023-01-28T07:04:59.120Z,97655.47
2023-01-28T07:07:26.664Z,97658.47
2023-01-28T07:09:54.154Z,97646.59
2023-01-28T07:12:21.681Z,97642.50
2023-01-28T07:14:49.193Z,97649.44
2023-01-28T07:17:16.856Z,97652.91
2023-01-28T07:19:44.453Z,97650.13
2023-01-28T07:22:11.897Z,97653.56
2023-01-28T07:24:39.367Z,97650.00
2023-01-28T07:27:06.811Z,97650.94
2023-01-28T07:29:34.465Z,97650.63
2023-01-28T07:32:02.523Z,97645.63
2023-01-28T07:34:30.110Z,97653.00
2023-01-28T07:36:57.634Z,97647.34
2023-01-28T07:39:25.326Z,97657.09
2023-01-28T07:41:53.034Z,97659.16
2023-01-28T07:44:33.020Z,97664.50
2023-01-28T07:47:00.620Z,97667.63
2023-01-28T07:49:28.077Z,97669.19
2023-01-28T07:51:55.636Z,97677.66
2023-01-28T07:54:23.100Z,97664.03
2023-01-28T07:56:50.549Z,97663.88
2023-01-28T07:59:18.055Z,97660.13
2023-01-28T08:01:45.596Z,97666.72
2023-01-28T08:04:13.193Z,97657.31
2023-01-28T08:06:40.653Z,97664.50
2023-01-28T08:09:08.839Z,97642.41
2023-01-28T08:11:39.045Z,97662.81
2023-01-28T08:14:07.182Z,97662.50
2023-01-28T08:16:34.882Z,97662.22
2023-01-28T08:19:03.134Z,97655.00
2023-01-28T08:21:30.764Z,97652.31
2023-01-28T08:23:58.325Z,97652.63
2023-01-28T08:26:25.957Z,97659.19
2023-01-28T08:28:53.504Z,97634.59
2023-01-28T08:31:21.196Z,97653.25
2023-01-28T08:33:48.837Z,97641.34
2023-01-28T08:36:16.443Z,97652.63
2023-01-28T08:38:44.048Z,97647.75
2023-01-28T08:41:11.699Z,97650.88
2023-01-28T08:43:39.264Z,97664.69
2023-01-28T08:46:08.033Z,97658.88
2023-01-28T08:48:35.547Z,97658.28
2023-01-28T08:51:03.039Z,97657.34
2023-01-28T08:53:30.683Z,97666.22
2023-01-28T08:55:58.147Z,97648.84
2023-01-28T08:58:25.893Z,97655.44
2023-01-28T09:00:53.352Z,97665.16
2023-01-28T09:03:21.016Z,97664.19
2023-01-28T09:05:49.941Z,97656.38
2023-01-28T09:08:17.465Z,97658.44
2023-01-28T09:10:45.167Z,97649.66
2023-01-28T09:13:16.157Z,97645.16
2023-01-28T09:15:44.207Z,97642.63
2023-01-28T09:18:11.987Z,97632.28
2023-01-28T09:20:39.645Z,97635.09
2023-01-28T09:23:07.333Z,97639.16
2023-01-28T09:25:36.617Z,97630.84
2023-01-28T09:28:04.572Z,97642.00
2023-01-28T09:30:33.290Z,97646.22
2023-01-28T09:33:02.064Z,97656.88
2023-01-28T09:35:29.673Z,97655.47
2023-01-28T09:37:59.077Z,97668.16
2023-01-28T09:40:38.617Z,97669.28
2023-01-28T09:43:37.053Z,97661.59
2023-01-28T09:46:07.486Z,97655.94
2023-01-28T09:48:41.193Z,97669.13
2023-01-28T09:51:11.852Z,97668.16
2023-01-28T09:53:46.893Z,97671.78
2023-01-28T09:56:43.286Z,97667.41
2023-01-28T09:59:23.208Z,97674.44
2023-01-28T10:02:05.393Z,97679.00
2023-01-28T10:04:53.819Z,97679.47
2023-01-28T10:07:41.637Z,97686.03
2023-01-28T10:10:32.054Z,97680.22
2023-01-28T10:13:20.159Z,97684.63
2023-01-28T10:16:09.047Z,97693.41
2023-01-28T10:18:47.708Z,97692.91
2023-01-28T10:21:36.838Z,97694.81
2023-01-28T10:24:19.003Z,97715.34
2023-01-28T10:26:46.867Z,97693.03
2023-01-28T10:29:19.028Z,97715.94
2023-01-28T10:32:05.778Z,97724.25
2023-01-28T10:34:33.672Z,97721.72
2023-01-28T10:37:01.355Z,97735.69
2023-01-28T10:39:30.382Z,97735.69
2023-01-28T10:41:59.091Z,97733.47
2023-01-28T10:44:38.355Z,97738.81
2023-01-28T10:47:16.676Z,97729.41
2023-01-28T10:50:00.371Z,97732.22
2023-01-28T10:52:28.101Z,97731.13
2023-01-28T10:55:05.184Z,97735.97
2023-01-28T10:57:41.805Z,97728.47
2023-01-28T11:00:24.149Z,97733.00
2023-01-28T11:02:51.958Z,97731.09
2023-01-28T11:05:26.850Z,97723.72
2023-01-28T11:08:05.247Z,97729.38
2023-01-28T11:10:38.661Z,97726.69
2023-01-28T11:13:17.175Z,97728.41
2023-01-28T11:15:49.969Z,97724.78
2023-01-28T11:18:36.220Z,97723.88
2023-01-28T11:21:06.856Z,97727.44
2023-01-28T11:23:40.092Z,97736.25
2023-01-28T11:26:15.741Z,97730.09
2023-01-28T11:28:44.335Z,97726.97
2023-01-28T11:31:18.114Z,97726.81
2023-01-28T11:33:45.605Z,97728.16
2023-01-28T11:36:19.198Z,97746.28
2023-01-28T11:38:59.103Z,97743.94
2023-01-28T11:41:31.274Z,97745.78
2023-01-28T11:44:01.035Z,97759.56
2023-01-28T11:46:59.373Z,97752.22
2023-01-28T11:49:54.904Z,97755.03
2023-01-28T11:53:04.438Z,97758.44
2023-01-28T11:55:50.170Z,97755.16
2023-01-28T11:58:24.314Z,97755.78
2023-01-28T12:01:03.198Z,97754.38
2023-01-28T12:03:41.136Z,97750.59
2023-01-28T12:06:11.410Z,97753.09
2023-01-28T12:09:07.212Z,97757.63
2023-01-28T12:12:13.020Z,97756.09
2023-01-28T12:15:18.003Z,97775.34
2023-01-28T12:18:30.105Z,97750.03
2023-01-28T12:21:08.648Z,97767.41
2023-01-28T12:24:18.982Z,97775.72
2023-01-28T12:27:27.368Z,97770.41
2023-01-28T12:30:31.055Z,97771.03
2023-01-28T12:33:17.450Z,97764.91
2023-01-28T12:36:07.397Z,97767.25
2023-01-28T12:38:49.124Z,97767.72
2023-01-28T12:41:25.222Z,97756.19
2023-01-28T12:44:01.974Z,97764.50
2023-01-28T12:46:45.767Z,97742.69
2023-01-28T12:49:55.617Z,97737.25
2023-01-28T12:52:30.582Z,97743.81
2023-01-28T12:55:07.512Z,97748.06
2023-01-28T12:57:36.402Z,97747.72
2023-01-28T13:00:35.393Z,97760.66
2023-01-28T13:03:11.959Z,97751.78
2023-01-28T13:05:46.111Z,97755.84
2023-01-28T13:08:23.852Z,97758.97
2023-01-28T13:10:53.075Z,97758.91
2023-01-28T13:13:32.037Z,97767.25
2023-01-28T13:16:00.816Z,97779.28
2023-01-28T13:18:34.246Z,97795.59
2023-01-28T13:21:03.739Z,97788.22
2023-01-28T13:23:31.194Z,97789.78
2023-01-28T13:26:32.069Z,97792.97
2023-01-28T13:29:20.348Z,97789.13
2023-01-28T13:31:53.278Z,97796.91
2023-01-28T13:34:37.663Z,97806.47
2023-01-28T13:37:17.439Z,97812.56
2023-01-28T13:39:52.540Z,97811.59
2023-01-28T13:42:31.371Z,97806.47
2023-01-28T13:45:17.470Z,97808.09
2023-01-28T13:47:53.117Z,97798.91
2023-01-28T13:50:24.585Z,97791.53
2023-01-28T13:53:10.722Z,97794.63
2023-01-28T13:55:45.425Z,97790.47
2023-01-28T13:58:50.657Z,97804.59
2023-01-28T14:02:02.854Z,97805.09
2023-01-28T14:04:50.339Z,97802.59
2023-01-28T14:07:56.318Z,97762.53
2023-01-28T14:10:49.497Z,97782.78
2023-01-28T14:13:16.815Z,97769.34
2023-01-28T14:16:05.905Z,97783.50
2023-01-28T14:18:39.969Z,97795.81
2023-01-28T14:21:16.173Z,97798.59
2023-01-28T14:23:50.367Z,97791.91
2023-01-28T14:26:39.530Z,97796.25
2023-01-28T14:29:21.255Z,97796.13
2023-01-28T14:31:49.011Z,97792.59
2023-01-28T14:34:28.464Z,97796.91
2023-01-28T14:37:32.451Z,97789.59
2023-01-28T14:40:15.089Z,97792.56
2023-01-28T14:42:45.730Z,97782.34
2023-01-28T14:45:50.149Z,97794.16
2023-01-28T14:48:26.281Z,97788.25
2023-01-28T14:51:18.059Z,97793.28
2023-01-28T14:54:16.376Z,97791.91
2023-01-28T14:56:58.892Z,97795.47
2023-01-28T14:59:46.670Z,97796.25
2023-01-28T15:02:31.532Z,97788.56
2023-01-28T15:05:16.699Z,97791.41
2023-01-28T15:07:46.760Z,97785.53
2023-01-28T15:10:19.097Z,97798.44
2023-01-28T15:12:54.899Z,97793.28
2023-01-28T15:15:30.923Z,97798.91
2023-01-28T15:18:19.840Z,97790.41
2023-01-28T15:20:50.810Z,97791.53
2023-01-28T15:23:28.363Z,97793.78
2023-01-28T15:25:56.406Z,97797.25
2023-01-28T15:28:35.947Z,97799.56
2023-01-28T15:31:04.050Z,97785.72
2023-01-28T15:33:31.747Z,97797.81
2023-01-28T15:35:59.949Z,97790.81
2023-01-28T15:38:29.457Z,97790.22
2023-01-28T15:41:01.677Z,97781.94
2023-01-28T15:43:36.888Z,97787.44
2023-01-28T15:46:09.925Z,97793.34
2023-01-28T15:48:37.791Z,97793.06
2023-01-28T15:51:18.697Z,97797.78
2023-01-28T15:53:50.353Z,97792.19
2023-01-28T15:56:25.985Z,97791.97
2023-01-28T15:58:54.190Z,97785.50
2023-01-28T16:01:22.860Z,97784.13
2023-01-28T16:04:10.531Z,97794.16
2023-01-28T16:06:41.990Z,97797.50
2023-01-28T16:09:25.107Z,97788.31
2023-01-28T16:11:53.146Z,97790.16
2023-01-28T16:14:31.833Z,97796.91
2023-01-28T16:16:59.540Z,97782.50
2023-01-28T16:19:49.475Z,97787.13
2023-01-28T16:22:28.171Z,97782.09
2023-01-28T16:24:56.056Z,97794.69
2023-01-28T16:27:26.269Z,97794.59
2023-01-28T16:29:54.591Z,97790.19
2023-01-28T16:32:35.843Z,97794.59
2023-01-28T16:35:05.463Z,97801.19
2023-01-28T16:37:33.004Z,97803.16
2023-01-28T16:40:02.189Z,97799.78
2023-01-28T16:42:32.744Z,97804.56
2023-01-28T16:45:00.351Z,97807.22
2023-01-28T16:47:28.862Z,97809.88
2023-01-28T16:49:56.522Z,97808.28
2023-01-28T16:52:24.055Z,97800.44
2023-01-28T16:54:51.727Z,97798.09
2023-01-28T16:57:21.939Z,97811.25
2023-01-28T16:59:49.529Z,97810.56
2023-01-28T17:02:18.205Z,97811.16
2023-01-28T17:04:45.797Z,97819.34
2023-01-28T17:07:13.366Z,97822.03
2023-01-28T17:09:40.943Z,97818.00
2023-01-28T17:12:08.463Z,97822.09
2023-01-28T17:14:36.042Z,97823.19
2023-01-28T17:17:03.771Z,97821.50
2023-01-28T17:19:31.367Z,97815.88
2023-01-28T17:21:59.917Z,97831.44
2023-01-28T17:24:29.445Z,97822.00
2023-01-28T17:26:56.956Z,97825.91
2023-01-28T17:29:24.438Z,97823.94
2023-01-28T17:31:52.031Z,97821.41
2023-01-28T17:34:19.705Z,97814.72
2023-01-28T17:36:47.144Z,97812.63
2023-01-28T17:39:14.683Z,97816.88
2023-01-28T17:41:42.298Z,97818.13
2023-01-28T17:44:15.201Z,97819.72
2023-01-28T17:46:43.000Z,97819.72
2023-01-28T17:49:10.705Z,97823.34
2023-01-28T17:51:38.216Z,97825.63
2023-01-28T17:54:06.326Z,97827.19
2023-01-28T17:56:33.871Z,97829.44
2023-01-28T17:59:04.028Z,97829.34
2023-01-28T18:01:31.978Z,97816.06
2023-01-28T18:04:00.741Z,97817.91
2023-01-28T18:06:32.956Z,97819.50
2023-01-28T18:09:00.557Z,97821.56
2023-01-28T18:11:28.990Z,97818.91
2023-01-28T18:13:56.731Z,97821.97
2023-01-28T18:16:25.009Z,97822.16
2023-01-28T18:18:52.914Z,97810.53
2023-01-28T18:21:51.790Z,97811.88
2023-01-28T18:24:22.010Z,97811.88
2023-01-28T18:26:51.085Z,97817.09
2023-01-28T18:29:21.078Z,97816.78
2023-01-28T18:31:49.641Z,97818.69
2023-01-28T18:34:19.055Z,97810.56
2023-01-28T18:36:46.935Z,97806.34
2023-01-28T18:39:15.414Z,97793.88
2023-01-28T18:41:43.364Z,97813.88
2023-01-28T18:44:12.734Z,97809.91
2023-01-28T18:46:40.520Z,97813.66
2023-01-28T18:49:08.209Z,97812.38
2023-01-28T18:51:35.798Z,97812.56
2023-01-28T18:54:05.267Z,97804.28
2023-01-28T18:56:33.765Z,97805.84
2023-01-28T18:59:03.881Z,97814.34
2023-01-28T19:01:33.520Z,97814.59
2023-01-28T19:04:01.920Z,97816.31
2023-01-28T19:06:31.093Z,97811.78
2023-01-28T19:09:07.890Z,97813.06
2023-01-28T19:11:35.979Z,97821.69
2023-01-28T19:14:03.610Z,97819.03
2023-01-28T19:16:31.268Z,97830.16
2023-01-28T19:19:01.354Z,97811.84
2023-01-28T19:21:30.590Z,97820.03
2023-01-28T19:24:01.259Z,97828.34
2023-01-28T19:26:31.318Z,97823.94
2023-01-28T19:28:59.180Z,97813.41
2023-01-28T19:31:27.726Z,97828.66
2023-01-28T19:33:57.934Z,97822.97
2023-01-28T19:36:27.676Z,97827.38
2023-01-28T19:39:00.268Z,97823.81
2023-01-28T19:41:29.206Z,97813.59
2023-01-28T19:43:57.656Z,97809.50
2023-01-28T19:46:25.846Z,97824.63
2023-01-28T19:48:53.831Z,97815.06
2023-01-28T19:51:22.357Z,97819.00
2023-01-28T19:53:51.769Z,97816.81
2023-01-28T19:56:20.801Z,97808.81
2023-01-28T19:58:48.530Z,97800.13
2023-01-28T20:01:22.687Z,97815.38
2023-01-28T20:03:53.200Z,97829.44
2023-01-28T20:06:22.008Z,97822.19
2023-01-28T20:08:54.864Z,97822.84
2023-01-28T20:11:23.412Z,97825.03
2023-01-28T20:13:52.779Z,97824.44
2023-01-28T20:16:25.749Z,97826.41
2023-01-28T20:19:03.868Z,97826.31
2023-01-28T20:21:32.676Z,97824.84
2023-01-28T20:24:02.206Z,97828.31
2023-01-28T20:26:32.332Z,97820.63
2023-01-28T20:29:11.043Z,97824.38
2023-01-28T20:31:40.115Z,97822.47
2023-01-28T20:34:15.550Z,97820.13
2023-01-28T20:36:43.647Z,97837.34
2023-01-28T20:39:11.664Z,97825.44
2023-01-28T20:41:39.303Z,97825.44
2023-01-28T20:44:06.818Z,97827.53
2023-01-28T20:46:36.852Z,97837.50
2023-01-28T20:49:06.900Z,97830.50
2023-01-28T20:51:36.000Z,97838.47
2023-01-28T20:54:04.664Z,97840.44
2023-01-28T20:56:32.723Z,97826.88
2023-01-28T20:59:06.202Z,97830.44
2023-01-28T21:01:35.789Z,97831.19
2023-01-28T21:04:05.232Z,97836.34
2023-01-28T21:06:33.371Z,97832.22
2023-01-28T21:09:01.563Z,97823.94
2023-01-28T21:11:29.308Z,97829.97
2023-01-28T21:13:57.547Z,97838.53
2023-01-28T21:16:25.635Z,97835.47
2023-01-28T21:18:53.187Z,97833.94
2023-01-28T21:21:26.950Z,97841.19
2023-01-28T21:23:58.158Z,97822.81
2023-01-28T21:26:26.470Z,97829.41
2023-01-28T21:28:54.298Z,97830.47
2023-01-28T21:31:25.476Z,97834.09
2023-01-28T21:33:57.612Z,97830.78
2023-01-28T21:36:26.260Z,97820.66
2023-01-28T21:38:56.501Z,97830.84
2023-01-28T21:41:24.546Z,97834.09
2023-01-28T21:43:54.054Z,97830.84
2023-01-28T21:46:22.693Z,97834.09
2023-01-28T21:48:54.380Z,97820.34
2023-01-28T21:51:40.777Z,97832.81
2023-01-28T21:54:14.871Z,97834.31
2023-01-28T21:56:50.242Z,97839.63
2023-01-28T21:59:34.898Z,97835.69
2023-01-28T22:02:11.185Z,97833.22
2023-01-28T22:04:41.453Z,97832.13
2023-01-28T22:07:11.946Z,97830.06
2023-01-28T22:09:40.309Z,97834.31
2023-01-28T22:12:08.354Z,97841.69
2023-01-28T22:14:37.636Z,97836.38
2023-01-28T22:17:07.690Z,97839.31
2023-01-28T22:19:35.860Z,97816.81
2023-01-28T22:22:04.157Z,97838.22
2023-01-28T22:24:32.072Z,97835.09
2023-01-28T22:27:00.039Z,97837.13
2023-01-28T22:29:28.422Z,97831.06
2023-01-28T22:31:56.262Z,97832.22
2023-01-28T22:34:24.209Z,97822.88
2023-01-28T22:36:51.941Z,97833.22
2023-01-28T22:39:20.094Z,97829.78
2023-01-28T22:41:48.348Z,97822.19
2023-01-28T22:44:16.355Z,97828.88
2023-01-28T22:46:43.954Z,97826.72
2023-01-28T22:49:12.521Z,97821.53
2023-01-28T22:51:40.092Z,97825.16
2023-01-28T22:54:08.312Z,97816.28
2023-01-28T22:56:35.889Z,97818.47
2023-01-28T22:59:04.681Z,97821.81
2023-01-28T23:01:33.990Z,97828.13
2023-01-28T23:04:01.579Z,97820.75
2023-01-28T23:06:30.418Z,97816.50
2023-01-28T23:08:58.314Z,97826.84
2023-01-28T23:11:27.664Z,97830.09
2023-01-28T23:14:17.325Z,97818.38
2023-01-28T23:17:04.501Z,97816.50
2023-01-28T23:19:51.271Z,97822.50
2023-01-28T23:22:51.976Z,97830.88
2023-01-28T23:25:20.420Z,97821.44
2023-01-28T23:27:47.983Z,97823.19
2023-01-28T23:30:16.098Z,97819.88
2023-01-28T23:32:48.885Z,97819.59
2023-01-28T23:35:19.266Z,97821.25
2023-01-28T23:37:47.663Z,97813.16
2023-01-28T23:40:16.680Z,97812.88
2023-01-28T23:42:55.250Z,97829.00
2023-01-28T23:45:22.957Z,97820.94
2023-01-28T23:47:50.548Z,97811.72
2023-01-28T23:50:18.409Z,97819.66
2023-01-28T23:52:46.011Z,97816.72
2023-01-28T23:55:13.550Z,97810.03
2023-01-28T23:57:41.232Z,97816.03
